Date,TemperatureHighF,TemperatureAvgF,TemperatureLowF,DewpointHighF,DewpointAvgF,DewpointLowF,HumidityHigh,HumidityAvg,HumidityLow,PressureMaxIn,PressureMinIn,WindSpeedMaxMPH,WindSpeedAvgMPH,GustSpeedMaxMPH,PrecipitationSumIn
2013-2-1,12,9,7,0,-3,-7,69,56,50,0.00,40.00,18,12,0,0.00
2013-2-2,9,6,3,6,-1,-8,87,72,54,0.00,40.00,11,7,0,0.00
2013-2-3,18,11,6,12,7,3,88,83,78,0.00,40.00,10,8,0,0.00
2013-2-4,18,13,6,13,5,-9,87,69,49,0.00,40.00,17,10,0,0.00
2013-2-5,14,8,0,1,-5,-12,67,54,50,0.00,40.00,9,6,0,0.00
2013-2-6,21,14,7,12,0,-10,86,53,36,0.00,40.00,16,9,0,0.00
2013-2-7,6,0,-6,-5,-11,-16,69,58,46,0.00,40.00,14,10,0,0.00
2013-2-8,11,6,0,8,2,-10,88,83,59,0.00,40.00,30,24,0,0.00
2013-2-9,22,14,11,7,2,-3,82,59,38,0.00,40.00,29,14,0,0.00
2013-2-10,20,14,9,7,4,0,87,65,50,0.00,40.00,8,5,0,0.00
2013-2-11,39,24,13,34,20,4,99,83,61,0.00,40.00,17,8,0,0.00
2013-2-12,38,35,32,33,31,27,94,83,72,0.00,40.00,17,12,0,0.00
2013-2-13,34,32,30,29,25,22,88,76,65,0.00,40.00,10,6,0,0.00
2013-2-14,35,33,31,28,24,20,88,69,52,0.00,40.00,9,6,0,0.00
2013-2-15,39,34,30,32,27,21,99,76,54,0.00,40.00,21,12,0,0.00
2013-2-16,30,20,15,22,8,4,72,58,46,0.00,40.00,11,8,0,0.00
2013-2-17,18,13,8,7,1,-3,70,58,46,0.00,40.00,20,11,0,0.00
2013-2-18,17,11,4,3,-3,-6,65,54,40,30.13,30.06,24,16,0,0.00
2013-2-19,34,24,15,33,15,3,100,69,57,30.12,29.58,16,10,0,0.00
2013-2-20,30,25,16,30,24,9,100,93,74,29.71,29.52,23,17,0,0.00
2013-2-21,23,16,9,17,10,4,82,78,72,30.34,29.78,17,12,0,0.00
2013-2-22,29,25,22,23,20,16,89,81,74,30.44,30.23,11,6,0,0.00
2013-2-23,33,29,24,33,28,21,100,94,85,30.21,29.85,13,9,0,0.00
2013-2-24,34,33,32,34,33,32,100,99,97,29.93,29.80,13,4,0,0.00
2013-2-25,34,32,30,33,31,29,100,94,87,30.10,29.94,6,4,0,0.00
2013-2-26,36,34,32,34,32,30,100,91,80,0.00,40.00,10,5,0,0.00
2013-2-27,37,34,31,32,29,25,100,83,65,0.00,40.00,25,15,0,0.00
2013-2-28,35,33,31,34,32,31,100,97,93,0.00,40.00,18,13,0,0.00